Time;durP1;ratioP1;P1;durP2;ratioP2;P2;SDS_P1;SDS_P2;PMS_P1;PMS_P2;Temp;Humidity;BMP_temperature;BMP_pressure;BME280_temperature;BME280_humidity;BME280_pressure;Samples;Min_cycle;Max_cycle;Signal;HPM_P1;HPM_P2
2023/04/27 00:00:38;;;;;;;11.48;8.30;;;;;;;;;;5060261;28;20487;-58
2023/04/27 00:03:04;;;;;;;10.95;7.18;;;;;;;;;;5051768;28;20600;-58
2023/04/27 00:05:35;;;;;;;17.27;7.05;;;;;;;;;;5043513;28;20455;-59
2023/04/27 00:08:02;;;;;;;17.08;7.45;;;;;;;;;;5060267;28;20429;-58
2023/04/27 00:10:28;;;;;;;11.38;6.75;;;;;;;;;;5078576;28;20416;-59
2023/04/27 00:12:55;;;;;;;15.98;8.20;;;;;;;;;;5072560;28;20304;-59
2023/04/27 00:15:21;;;;;;;11.50;7.70;;;;;;;;;;5062774;28;20507;-60
2023/04/27 00:17:48;;;;;;;14.90;7.57;;;;;;;;;;5044684;28;20057;-59
2023/04/27 00:20:14;;;;;;;12.80;7.93;;;;;;;;;;5050125;28;20087;-58
2023/04/27 00:22:41;;;;;;;12.48;7.40;;;;;;;;;;5056747;28;20064;-57
2023/04/27 00:25:07;;;;;;;10.82;7.82;;;;;;;;;;5065545;28;20144;-59
2023/04/27 00:27:33;;;;;;;13.25;8.13;;;;;;;;;;5045116;28;20636;-58
2023/04/27 00:30:00;;;;;;;10.73;7.50;;;;;;;;;;5047812;28;20052;-59
2023/04/27 00:32:26;;;;;;;14.27;8.13;;;;;;;;;;5050332;28;20104;-57
2023/04/27 00:34:53;;;;;;;11.95;7.63;;;;;;;;;;5060091;28;20057;-60
2023/04/27 00:37:19;;;;;;;12.88;8.07;;;;;;;;;;5047501;28;20361;-59
2023/04/27 00:39:45;;;;;;;18.75;8.52;;;;;;;;;;5043647;28;20042;-59
2023/04/27 00:42:15;;;;;;;14.07;7.82;;;;;;;;;;5054302;28;20512;-59
2023/04/27 00:44:41;;;;;;;12.70;7.80;;;;;;;;;;5062994;28;20081;-59
2023/04/27 00:47:09;;;;;;;12.60;8.13;;;;;;;;;;5046129;28;20131;-59
2023/04/27 00:49:35;;;;;;;10.93;6.72;;;;;;;;;;5052235;28;20057;-59
2023/04/27 00:52:01;;;;;;;10.70;6.80;;;;;;;;;;5066249;28;20049;-59
2023/04/27 00:54:28;;;;;;;12.48;7.72;;;;;;;;;;5069808;28;20526;-59
2023/04/27 00:56:54;;;;;;;10.27;7.20;;;;;;;;;;5084187;28;20469;-60
2023/04/27 00:59:21;;;;;;;11.35;7.30;;;;;;;;;;5065687;28;20048;-59
2023/04/27 01:01:48;;;;;;;13.38;7.85;;;;;;;;;;5065880;28;20084;-59
2023/04/27 01:04:16;;;;;;;12.25;6.72;;;;;;;;;;5065109;28;20121;-60
2023/04/27 01:06:43;;;;;;;10.15;7.22;;;;;;;;;;5062966;28;20508;-59
2023/04/27 01:09:10;;;;;;;11.32;7.20;;;;;;;;;;5063313;28;20052;-58
2023/04/27 01:11:37;;;;;;;11.15;6.97;;;;;;;;;;5058039;28;20304;-59
2023/04/27 01:14:04;;;;;;;15.00;7.45;;;;;;;;;;5085052;28;20439;-59
2023/04/27 01:16:34;;;;;;;12.35;7.70;;;;;;;;;;5065586;28;20056;-59
2023/04/27 01:19:00;;;;;;;13.05;6.88;;;;;;;;;;5063901;28;20052;-58
2023/04/27 01:21:27;;;;;;;12.35;7.60;;;;;;;;;;5063924;28;20154;-59
2023/04/27 01:23:54;;;;;;;10.60;6.97;;;;;;;;;;5064124;28;20103;-59
2023/04/27 01:26:21;;;;;;;16.50;8.20;;;;;;;;;;5080903;28;20147;-59
2023/04/27 01:28:47;;;;;;;11.80;8.02;;;;;;;;;;5083772;28;20060;-59
2023/04/27 01:31:14;;;;;;;11.40;7.25;;;;;;;;;;5068483;28;20088;-59
2023/04/27 01:33:41;;;;;;;10.93;7.07;;;;;;;;;;5061664;28;20071;-57
2023/04/27 01:36:07;;;;;;;13.05;6.85;;;;;;;;;;5063517;28;20060;-59
2023/04/27 01:38:34;;;;;;;13.35;7.97;;;;;;;;;;5043960;28;20045;-60
2023/04/27 01:41:02;;;;;;;13.50;7.10;;;;;;;;;;5081341;28;20139;-59
2023/04/27 01:43:30;;;;;;;11.52;8.05;;;;;;;;;;5071196;28;20085;-59
2023/04/27 01:46:06;;;;;;;14.13;6.72;;;;;;;;;;5064355;28;20088;-59
2023/04/27 01:48:33;;;;;;;16.58;7.80;;;;;;;;;;5061524;28;20060;-58
2023/04/27 01:50:59;;;;;;;11.55;7.30;;;;;;;;;;5062788;28;20463;-59
2023/04/27 01:53:26;;;;;;;12.90;7.78;;;;;;;;;;5046126;28;20123;-58
2023/04/27 01:55:53;;;;;;;11.43;6.90;;;;;;;;;;5078420;28;20549;-57
2023/04/27 01:58:19;;;;;;;13.82;7.22;;;;;;;;;;5072999;28;20155;-59
2023/04/27 02:00:45;;;;;;;14.05;6.72;;;;;;;;;;5056724;28;20526;-59
2023/04/27 02:03:12;;;;;;;12.15;7.65;;;;;;;;;;5045805;28;20057;-58
2023/04/27 02:05:39;;;;;;;10.63;6.82;;;;;;;;;;5052404;28;20083;-58
2023/04/27 02:08:05;;;;;;;13.00;7.30;;;;;;;;;;5050978;28;20566;-59
2023/04/27 02:10:31;;;;;;;13.00;6.47;;;;;;;;;;5049869;28;20059;-59
2023/04/27 02:12:58;;;;;;;13.55;7.22;;;;;;;;;;5068395;28;20045;-58
2023/04/27 02:15:25;;;;;;;11.52;7.03;;;;;;;;;;5060412;28;20053;-59
2023/04/27 02:17:51;;;;;;;11.57;6.85;;;;;;;;;;5057980;28;20056;-60
2023/04/27 02:20:18;;;;;;;11.38;6.68;;;;;;;;;;5043312;28;20500;-59
2023/04/27 02:22:44;;;;;;;10.48;6.40;;;;;;;;;;5042608;28;20148;-59
2023/04/27 02:25:10;;;;;;;16.20;7.82;;;;;;;;;;5064454;28;20056;-59
2023/04/27 02:27:37;;;;;;;9.98;7.07;;;;;;;;;;5070289;28;20083;-60
2023/04/27 02:30:05;;;;;;;10.45;7.22;;;;;;;;;;5057490;28;20265;-59
2023/04/27 02:32:32;;;;;;;15.38;7.03;;;;;;;;;;5049236;28;20049;-59
2023/04/27 02:34:59;;;;;;;12.15;6.95;;;;;;;;;;5072228;28;20340;-60
2023/04/27 02:37:26;;;;;;;13.85;6.82;;;;;;;;;;5050799;28;20059;-60
2023/04/27 02:39:52;;;;;;;10.95;7.03;;;;;;;;;;5050530;28;20510;-61
2023/04/27 02:42:18;;;;;;;10.80;6.68;;;;;;;;;;5042719;28;20057;-59
2023/04/27 02:44:45;;;;;;;10.75;6.72;;;;;;;;;;5061836;28;20045;-58
2023/04/27 02:47:12;;;;;;;11.13;6.78;;;;;;;;;;5044920;28;20088;-59
2023/04/27 02:49:38;;;;;;;10.20;7.00;;;;;;;;;;5058928;28;20072;-58
2023/04/27 02:52:05;;;;;;;12.45;7.07;;;;;;;;;;5048186;28;20532;-60
2023/04/27 02:54:31;;;;;;;11.23;6.60;;;;;;;;;;5061814;28;20614;-58
2023/04/27 02:56:58;;;;;;;12.75;7.25;;;;;;;;;;5060106;28;20064;-59
2023/04/27 02:59:25;;;;;;;11.77;6.20;;;;;;;;;;5060202;28;20049;-59
2023/04/27 03:01:52;;;;;;;9.95;6.45;;;;;;;;;;5061157;28;20053;-59
2023/04/27 03:04:18;;;;;;;10.55;6.63;;;;;;;;;;5054186;28;20596;-59
2023/04/27 03:06:45;;;;;;;9.85;6.63;;;;;;;;;;5061724;28;20449;-59
2023/04/27 03:09:12;;;;;;;13.23;6.95;;;;;;;;;;5064013;28;20056;-59
2023/04/27 03:11:39;;;;;;;18.85;7.32;;;;;;;;;;5060292;28;20049;-59
2023/04/27 03:14:05;;;;;;;16.67;7.78;;;;;;;;;;5063261;28;20147;-59
2023/04/27 03:16:32;;;;;;;12.18;7.10;;;;;;;;;;5066988;28;20057;-58
2023/04/27 03:18:59;;;;;;;10.98;7.15;;;;;;;;;;5060428;28;20164;-58
2023/04/27 03:21:25;;;;;;;16.40;6.80;;;;;;;;;;5061377;28;20111;-59
2023/04/27 03:23:52;;;;;;;11.80;6.55;;;;;;;;;;5063405;28;20580;-58
2023/04/27 03:26:19;;;;;;;12.38;7.18;;;;;;;;;;5054514;28;20146;-59
2023/04/27 03:28:45;;;;;;;10.63;5.75;;;;;;;;;;5063810;28;20084;-56
2023/04/27 03:31:13;;;;;;;10.35;6.63;;;;;;;;;;5065655;28;20053;-59
2023/04/27 03:33:39;;;;;;;11.40;6.82;;;;;;;;;;5052920;28;20049;-59
2023/04/27 03:36:06;;;;;;;11.88;6.88;;;;;;;;;;5057540;28;20081;-59
2023/04/27 03:38:33;;;;;;;11.30;7.28;;;;;;;;;;5049399;28;20140;-59
2023/04/27 03:40:59;;;;;;;12.77;5.95;;;;;;;;;;5060894;28;20556;-60
2023/04/27 03:43:26;;;;;;;10.52;6.45;;;;;;;;;;5073388;28;20056;-59
2023/04/27 03:45:52;;;;;;;10.15;7.05;;;;;;;;;;5065792;28;20053;-58
2023/04/27 03:48:19;;;;;;;10.27;5.93;;;;;;;;;;5053928;28;20061;-59
2023/04/27 03:50:46;;;;;;;10.80;6.45;;;;;;;;;;5057848;28;20528;-59
2023/04/27 03:53:12;;;;;;;10.93;6.60;;;;;;;;;;5056959;28;20054;-60
2023/04/27 03:55:39;;;;;;;10.48;6.53;;;;;;;;;;5058141;28;20059;-57
2023/04/27 03:58:06;;;;;;;13.18;7.40;;;;;;;;;;5045538;28;20085;-60
2023/04/27 04:00:32;;;;;;;9.98;6.47;;;;;;;;;;5061414;28;20053;-58
2023/04/27 04:03:00;;;;;;;10.98;6.30;;;;;;;;;;5064507;28;20064;-58
2023/04/27 04:05:26;;;;;;;10.20;6.47;;;;;;;;;;5065809;28;20151;-60
2023/04/27 04:07:53;;;;;;;12.30;6.60;;;;;;;;;;5071935;28;20052;-59
2023/04/27 04:10:19;;;;;;;10.90;6.85;;;;;;;;;;5073965;28;20139;-59
2023/04/27 04:12:46;;;;;;;8.80;6.10;;;;;;;;;;5059096;28;20088;-59
2023/04/27 04:15:12;;;;;;;12.38;6.60;;;;;;;;;;5045039;28;20058;-59
2023/04/27 04:17:38;;;;;;;12.52;6.03;;;;;;;;;;5061569;28;20444;-59
2023/04/27 04:20:09;;;;;;;12.55;6.75;;;;;;;;;;5047669;28;20059;-59
2023/04/27 04:22:36;;;;;;;13.82;6.35;;;;;;;;;;5061606;28;20439;-58
2023/04/27 04:25:03;;;;;;;13.52;6.75;;;;;;;;;;5063729;28;20471;-59
2023/04/27 04:27:30;;;;;;;10.48;6.45;;;;;;;;;;5043038;28;20140;-55
2023/04/27 04:29:59;;;;;;;14.85;7.10;;;;;;;;;;5045524;28;20066;-59
2023/04/27 04:32:28;;;;;;;12.65;6.15;;;;;;;;;;5062130;28;20147;-59
2023/04/27 04:34:56;;;;;;;11.55;6.25;;;;;;;;;;5080183;28;20635;-59
2023/04/27 04:37:22;;;;;;;11.13;6.03;;;;;;;;;;5066166;28;20049;-59
2023/04/27 04:39:48;;;;;;;10.98;6.50;;;;;;;;;;5078340;28;20144;-59
2023/04/27 04:42:15;;;;;;;14.32;6.97;;;;;;;;;;5069636;28;20054;-55
2023/04/27 04:44:41;;;;;;;11.20;6.43;;;;;;;;;;5076436;28;20060;-58
2023/04/27 04:47:10;;;;;;;15.18;6.28;;;;;;;;;;5044818;28;20141;-60
2023/04/27 04:49:37;;;;;;;11.73;6.80;;;;;;;;;;5043749;28;20053;-60
2023/04/27 04:52:03;;;;;;;11.15;6.57;;;;;;;;;;5069352;28;20164;-58
2023/04/27 04:54:30;;;;;;;23.33;6.95;;;;;;;;;;5062710;28;20057;-56
2023/04/27 04:57:02;;;;;;;9.07;5.88;;;;;;;;;;5063072;28;20057;-57
2023/04/27 04:59:32;;;;;;;12.02;5.68;;;;;;;;;;5063034;28;20636;-59
2023/04/27 05:01:58;;;;;;;13.80;6.97;;;;;;;;;;5055869;28;20065;-59
2023/04/27 05:04:25;;;;;;;15.90;6.95;;;;;;;;;;5059703;28;20110;-58
2023/04/27 05:06:52;;;;;;;10.82;6.03;;;;;;;;;;5062752;28;20106;-59
2023/04/27 05:09:18;;;;;;;16.67;6.68;;;;;;;;;;5064545;28;20491;-59
2023/04/27 05:11:44;;;;;;;8.95;5.63;;;;;;;;;;5063340;28;20645;-59
2023/04/27 05:14:11;;;;;;;9.63;6.18;;;;;;;;;;5064604;28;20100;-58
2023/04/27 05:16:37;;;;;;;13.65;6.07;;;;;;;;;;5063239;28;20507;-58
2023/04/27 05:19:04;;;;;;;15.73;6.95;;;;;;;;;;5051072;28;20058;-59
2023/04/27 05:21:31;;;;;;;19.15;6.20;;;;;;;;;;5064671;28;20061;-59
2023/04/27 05:23:57;;;;;;;10.60;5.88;;;;;;;;;;5053913;28;20056;-57
2023/04/27 05:26:24;;;;;;;9.50;6.22;;;;;;;;;;5056396;28;20466;-59
2023/04/27 05:28:51;;;;;;;9.57;5.57;;;;;;;;;;5049256;28;20567;-60
2023/04/27 05:31:17;;;;;;;10.48;5.45;;;;;;;;;;5080446;28;20520;-59
2023/04/27 05:33:43;;;;;;;12.60;6.45;;;;;;;;;;5073677;28;20057;-58
2023/04/27 05:36:10;;;;;;;9.93;5.82;;;;;;;;;;5075727;28;20055;-60
2023/04/27 05:38:38;;;;;;;11.93;5.57;;;;;;;;;;5079342;28;20057;-59
2023/04/27 05:41:05;;;;;;;8.65;4.90;;;;;;;;;;5059252;28;20064;-59
2023/04/27 05:43:33;;;;;;;7.57;5.15;;;;;;;;;;5048732;28;20533;-58
2023/04/27 05:46:00;;;;;;;10.48;5.22;;;;;;;;;;5063872;28;20144;-59
2023/04/27 05:48:26;;;;;;;12.85;5.25;;;;;;;;;;5056323;28;20131;-59
2023/04/27 05:51:00;;;;;;;9.57;6.07;;;;;;;;;;5059185;28;20136;-60
2023/04/27 05:53:27;;;;;;;6.85;4.57;;;;;;;;;;5060006;28;20052;-59
2023/04/27 05:55:55;;;;;;;14.38;5.18;;;;;;;;;;5053373;28;20147;-58
2023/04/27 05:58:21;;;;;;;7.97;4.70;;;;;;;;;;5061675;28;20057;-59
2023/04/27 06:00:48;;;;;;;9.15;5.18;;;;;;;;;;5065822;28;20060;-59
2023/04/27 06:03:14;;;;;;;9.85;4.63;;;;;;;;;;5060896;28;20061;-59
2023/04/27 06:05:41;;;;;;;15.05;5.53;;;;;;;;;;5045726;28;20493;-59
2023/04/27 06:08:07;;;;;;;11.98;5.07;;;;;;;;;;5043414;28;20504;-59
2023/04/27 06:10:34;;;;;;;10.50;5.53;;;;;;;;;;5059437;28;20139;-59
2023/04/27 06:13:00;;;;;;;7.43;5.30;;;;;;;;;;5061676;28;20087;-59
2023/04/27 06:15:27;;;;;;;8.60;5.20;;;;;;;;;;5061277;28;20131;-58
2023/04/27 06:17:54;;;;;;;11.95;5.53;;;;;;;;;;5057131;28;20050;-58
2023/04/27 06:20:20;;;;;;;6.53;4.78;;;;;;;;;;5059136;28;20420;-59
2023/04/27 06:22:47;;;;;;;8.93;5.07;;;;;;;;;;5059377;28;20061;-59
2023/04/27 06:25:13;;;;;;;11.70;4.88;;;;;;;;;;5063252;28;20049;-59
2023/04/27 06:27:39;;;;;;;7.15;4.97;;;;;;;;;;5053586;28;20107;-59
2023/04/27 06:30:06;;;;;;;9.00;4.40;;;;;;;;;;5053407;28;20099;-59
2023/04/27 06:32:33;;;;;;;9.98;5.03;;;;;;;;;;5061354;28;20145;-60
2023/04/27 06:34:59;;;;;;;10.38;4.75;;;;;;;;;;5060073;28;20500;-59
2023/04/27 06:37:25;;;;;;;10.68;4.82;;;;;;;;;;5053339;28;20094;-59
2023/04/27 06:39:52;;;;;;;6.88;4.47;;;;;;;;;;5058258;28;20054;-60
2023/04/27 06:42:18;;;;;;;9.85;4.38;;;;;;;;;;5063695;28;20056;-59
2023/04/27 06:44:45;;;;;;;7.90;4.55;;;;;;;;;;5056066;28;20059;-59
2023/04/27 06:47:12;;;;;;;11.70;4.43;;;;;;;;;;5043973;28;20112;-58
2023/04/27 06:49:38;;;;;;;6.85;4.03;;;;;;;;;;5042531;28;20053;-57
2023/04/27 06:52:05;;;;;;;8.38;4.03;;;;;;;;;;5057218;28;20080;-60
2023/04/27 06:54:31;;;;;;;6.47;4.30;;;;;;;;;;5076041;28;20091;-59
2023/04/27 06:56:58;;;;;;;17.48;4.32;;;;;;;;;;5065767;28;20044;-56
2023/04/27 06:59:26;;;;;;;8.75;4.13;;;;;;;;;;5058811;28;20056;-59
2023/04/27 07:01:53;;;;;;;6.25;4.35;;;;;;;;;;5041803;28;20116;-59
2023/04/27 07:04:19;;;;;;;8.98;4.47;;;;;;;;;;5068701;28;20056;-59
2023/04/27 07:06:46;;;;;;;8.27;4.78;;;;;;;;;;5061273;28;20057;-59
2023/04/27 07:09:12;;;;;;;7.35;4.25;;;;;;;;;;5065621;28;20063;-58
2023/04/27 07:11:52;;;;;;;7.78;4.03;;;;;;;;;;5066753;28;20061;-59
2023/04/27 07:14:19;;;;;;;7.55;4.15;;;;;;;;;;5058060;28;20127;-59
2023/04/27 07:16:46;;;;;;;7.10;4.47;;;;;;;;;;5058320;28;20045;-59
2023/04/27 07:19:12;;;;;;;8.27;4.40;;;;;;;;;;5055900;28;20743;-59
2023/04/27 07:21:39;;;;;;;10.07;4.57;;;;;;;;;;5056567;28;20067;-60
2023/04/27 07:24:06;;;;;;;14.00;4.80;;;;;;;;;;5058066;28;20060;-59
2023/04/27 07:26:32;;;;;;;10.35;4.05;;;;;;;;;;5061671;28;20057;-59
2023/04/27 07:28:59;;;;;;;10.65;4.43;;;;;;;;;;5065994;28;20055;-59
2023/04/27 07:31:31;;;;;;;8.90;4.47;;;;;;;;;;5074717;28;20056;-57
2023/04/27 07:33:59;;;;;;;4.95;3.55;;;;;;;;;;5083929;28;20052;-58
2023/04/27 07:36:26;;;;;;;6.68;4.15;;;;;;;;;;5080050;28;20071;-57
2023/04/27 07:38:53;;;;;;;4.60;3.63;;;;;;;;;;5067102;28;20052;-60
2023/04/27 07:41:20;;;;;;;7.00;3.78;;;;;;;;;;5065800;28;20573;-60
2023/04/27 07:43:46;;;;;;;3.78;3.17;;;;;;;;;;5060963;28;20111;-60
2023/04/27 07:46:13;;;;;;;5.75;2.78;;;;;;;;;;5077323;28;20433;-59
2023/04/27 07:48:39;;;;;;;3.95;2.83;;;;;;;;;;5079291;28;20128;-59
2023/04/27 07:51:06;;;;;;;4.30;2.78;;;;;;;;;;5078599;28;20056;-59
2023/04/27 07:53:33;;;;;;;4.43;3.00;;;;;;;;;;5078645;28;20458;-57
2023/04/27 07:56:00;;;;;;;3.83;3.00;;;;;;;;;;5063131;28;20433;-58
2023/04/27 07:58:26;;;;;;;8.18;4.00;;;;;;;;;;5059387;28;20061;-59
2023/04/27 08:00:53;;;;;;;6.00;2.90;;;;;;;;;;5066934;28;20106;-59
2023/04/27 08:03:19;;;;;;;6.15;3.20;;;;;;;;;;5063134;28;20092;-58
2023/04/27 08:05:46;;;;;;;5.95;3.03;;;;;;;;;;5078529;28;20052;-59
2023/04/27 08:08:12;;;;;;;5.63;3.05;;;;;;;;;;5070115;28;20056;-60
2023/04/27 08:10:42;;;;;;;5.97;3.10;;;;;;;;;;5058240;28;20521;-62
2023/04/27 08:13:10;;;;;;;7.53;2.75;;;;;;;;;;5064432;28;20545;-57
2023/04/27 08:15:36;;;;;;;5.05;2.55;;;;;;;;;;5064470;28;20452;-59
2023/04/27 08:18:03;;;;;;;12.10;2.72;;;;;;;;;;5063183;28;20514;-59
2023/04/27 08:20:30;;;;;;;4.60;2.92;;;;;;;;;;5064402;28;20056;-59
2023/04/27 08:22:57;;;;;;;6.22;2.75;;;;;;;;;;5064796;28;20061;-58
2023/04/27 08:25:27;;;;;;;3.67;2.88;;;;;;;;;;5061988;28;20109;-58
2023/04/27 08:27:54;;;;;;;3.60;2.40;;;;;;;;;;5077646;28;20053;-57
2023/04/27 08:30:20;;;;;;;5.18;2.90;;;;;;;;;;5043462;28;20111;-59
2023/04/27 08:32:47;;;;;;;4.90;2.67;;;;;;;;;;5051255;28;20515;-59
2023/04/27 08:35:13;;;;;;;4.40;2.80;;;;;;;;;;5061017;28;20143;-59
2023/04/27 08:37:40;;;;;;;4.57;3.00;;;;;;;;;;5043517;28;20148;-59
2023/04/27 08:40:06;;;;;;;3.45;2.70;;;;;;;;;;5045431;28;20057;-58
2023/04/27 08:42:33;;;;;;;4.15;2.95;;;;;;;;;;5044671;28;20539;-58
2023/04/27 08:44:59;;;;;;;4.70;2.95;;;;;;;;;;5050823;28;20134;-58
2023/04/27 08:47:26;;;;;;;3.75;2.90;;;;;;;;;;5064664;28;20110;-59
2023/04/27 08:50:07;;;;;;;4.18;2.72;;;;;;;;;;5051429;28;20041;-59
2023/04/27 08:52:36;;;;;;;5.47;2.45;;;;;;;;;;5045114;28;20081;-58
2023/04/27 08:55:03;;;;;;;8.88;2.80;;;;;;;;;;5059783;28;20053;-58
2023/04/27 08:57:30;;;;;;;3.53;2.42;;;;;;;;;;5052763;28;20057;-59
2023/04/27 08:59:58;;;;;;;4.75;2.33;;;;;;;;;;5063233;28;20057;-55
2023/04/27 09:02:26;;;;;;;4.85;2.47;;;;;;;;;;5055616;28;20166;-59
2023/04/27 09:04:52;;;;;;;4.43;2.45;;;;;;;;;;5043428;28;20092;-58
2023/04/27 09:07:19;;;;;;;5.85;2.53;;;;;;;;;;5059543;28;20604;-59
2023/04/27 09:09:47;;;;;;;3.67;2.63;;;;;;;;;;5062245;28;20052;-57
2023/04/27 09:12:17;;;;;;;6.22;2.97;;;;;;;;;;5059259;28;20053;-59
2023/04/27 09:14:55;;;;;;;4.25;3.00;;;;;;;;;;5051108;28;20053;-59
2023/04/27 09:17:26;;;;;;;9.95;2.88;;;;;;;;;;5063746;28;20052;-59
2023/04/27 09:20:07;;;;;;;8.13;3.45;;;;;;;;;;5060832;28;20247;-59
2023/04/27 09:22:51;;;;;;;6.57;2.55;;;;;;;;;;5062750;28;20060;-60
2023/04/27 09:25:27;;;;;;;5.28;3.15;;;;;;;;;;5064091;28;20060;-58
2023/04/27 09:27:55;;;;;;;4.07;3.22;;;;;;;;;;5062848;28;20056;-57
2023/04/27 09:30:21;;;;;;;6.18;3.22;;;;;;;;;;5062655;28;20045;-57
2023/04/27 09:32:55;;;;;;;6.30;2.75;;;;;;;;;;5047135;28;20045;-60
2023/04/27 09:35:23;;;;;;;4.20;2.80;;;;;;;;;;5063498;28;20530;-59
2023/04/27 09:37:53;;;;;;;6.90;3.25;;;;;;;;;;5051782;28;20534;-59
2023/04/27 09:40:23;;;;;;;5.05;2.67;;;;;;;;;;5044443;28;20122;-59
2023/04/27 09:42:50;;;;;;;3.55;2.90;;;;;;;;;;5043116;28;20057;-59
2023/04/27 09:45:16;;;;;;;5.20;3.42;;;;;;;;;;5056442;28;20579;-58
2023/04/27 09:47:43;;;;;;;6.50;3.05;;;;;;;;;;5063191;28;20053;-58
2023/04/27 09:50:11;;;;;;;5.05;3.42;;;;;;;;;;5055098;28;20500;-56
2023/04/27 09:52:37;;;;;;;6.63;2.95;;;;;;;;;;5057241;28;20490;-60
2023/04/27 09:55:06;;;;;;;9.70;3.42;;;;;;;;;;5051251;28;20057;-59
2023/04/27 09:57:39;;;;;;;8.23;4.65;;;;;;;;;;5056065;28;20060;-60
2023/04/27 10:00:28;;;;;;;4.97;2.97;;;;;;;;;;5060074;28;20144;-60
2023/04/27 10:03:13;;;;;;;6.38;3.35;;;;;;;;;;5005224;28;20054;-59
2023/04/27 10:05:45;;;;;;;6.93;3.25;;;;;;;;;;5020721;28;20057;-60
2023/04/27 10:08:11;;;;;;;9.05;3.30;;;;;;;;;;5030793;28;20641;-60
2023/04/27 10:10:42;;;;;;;9.40;3.63;;;;;;;;;;5026010;28;20065;-58
2023/04/27 10:13:19;;;;;;;5.38;3.38;;;;;;;;;;5038439;28;20589;-60
2023/04/27 10:15:45;;;;;;;7.38;3.30;;;;;;;;;;5040139;28;20057;-60
2023/04/27 10:18:12;;;;;;;5.00;3.55;;;;;;;;;;5038524;28;20060;-59
2023/04/27 10:20:39;;;;;;;5.70;3.35;;;;;;;;;;5032940;28;20061;-61
2023/04/27 10:23:05;;;;;;;5.25;3.42;;;;;;;;;;5029090;28;20053;-59
2023/04/27 10:25:39;;;;;;;4.05;3.25;;;;;;;;;;5033756;28;20049;-60
2023/04/27 10:28:08;;;;;;;7.13;4.28;;;;;;;;;;5026833;28;20460;-61
2023/04/27 10:30:36;;;;;;;4.88;3.47;;;;;;;;;;5038944;28;20045;-60
2023/04/27 10:33:06;;;;;;;4.47;3.42;;;;;;;;;;5039660;28;20053;-60
2023/04/27 10:35:36;;;;;;;6.70;3.53;;;;;;;;;;5023374;28;20120;-60
2023/04/27 10:38:13;;;;;;;5.63;3.20;;;;;;;;;;5036597;28;20535;-60
2023/04/27 10:40:40;;;;;;;4.13;3.00;;;;;;;;;;5038120;28;20056;-59
2023/04/27 10:43:07;;;;;;;8.38;3.70;;;;;;;;;;5061255;28;20049;-60
2023/04/27 10:45:34;;;;;;;4.45;2.90;;;;;;;;;;5062101;28;20053;-60
2023/04/27 10:48:00;;;;;;;4.15;3.15;;;;;;;;;;5061885;28;20512;-61
2023/04/27 10:50:27;;;;;;;4.18;3.10;;;;;;;;;;5056460;28;20547;-61
2023/04/27 10:52:53;;;;;;;5.97;3.85;;;;;;;;;;5062860;28;20526;-60
2023/04/27 10:55:20;;;;;;;4.88;3.10;;;;;;;;;;5048561;28;20057;-60
2023/04/27 10:57:51;;;;;;;6.90;4.40;;;;;;;;;;5082427;28;20063;-60
2023/04/27 11:00:25;;;;;;;6.20;3.40;;;;;;;;;;5074344;28;20647;-61
2023/04/27 11:02:52;;;;;;;4.90;3.50;;;;;;;;;;5062354;28;20075;-61
2023/04/27 11:05:24;;;;;;;7.78;3.90;;;;;;;;;;5060294;28;20107;-60
2023/04/27 11:07:51;;;;;;;4.93;3.25;;;;;;;;;;5060081;28;20164;-61
2023/04/27 11:10:17;;;;;;;5.63;3.35;;;;;;;;;;5055462;28;20503;-61
2023/04/27 11:12:44;;;;;;;7.70;3.70;;;;;;;;;;5082447;28;20052;-61
2023/04/27 11:15:11;;;;;;;4.65;3.63;;;;;;;;;;5075190;28;20223;-61
2023/04/27 11:17:38;;;;;;;5.72;3.35;;;;;;;;;;5059859;28;20601;-61
2023/04/27 11:20:07;;;;;;;5.05;3.83;;;;;;;;;;5058770;28;20059;-60
2023/04/27 11:22:42;;;;;;;5.20;2.88;;;;;;;;;;5081716;28;20589;-61
2023/04/27 11:25:08;;;;;;;7.15;3.35;;;;;;;;;;5066745;28;20049;-60
2023/04/27 11:27:36;;;;;;;6.50;3.75;;;;;;;;;;5059659;28;20416;-58
2023/04/27 11:30:02;;;;;;;5.78;3.88;;;;;;;;;;5049497;28;20593;-58
2023/04/27 11:32:28;;;;;;;5.93;3.50;;;;;;;;;;5041980;28;20424;-59
2023/04/27 11:34:55;;;;;;;4.40;3.60;;;;;;;;;;5059058;28;20057;-60
2023/04/27 11:37:25;;;;;;;6.75;4.20;;;;;;;;;;5062536;28;20483;-59
2023/04/27 11:39:58;;;;;;;4.90;3.65;;;;;;;;;;5053721;28;20523;-60
2023/04/27 11:42:27;;;;;;;4.82;3.38;;;;;;;;;;5056498;28;20061;-60
2023/04/27 11:44:55;;;;;;;9.18;3.30;;;;;;;;;;5056520;28;20081;-62
2023/04/27 11:47:22;;;;;;;4.95;3.90;;;;;;;;;;5051877;28;20064;-61
2023/04/27 11:49:49;;;;;;;3.88;3.45;;;;;;;;;;5049921;28;20496;-60
2023/04/27 11:52:15;;;;;;;4.50;3.70;;;;;;;;;;5074175;28;20053;-61
2023/04/27 11:54:48;;;;;;;5.28;3.70;;;;;;;;;;5040762;28;20049;-61
2023/04/27 11:57:15;;;;;;;5.72;3.42;;;;;;;;;;5071049;28;20048;-61
2023/04/27 11:59:41;;;;;;;9.95;4.00;;;;;;;;;;5069956;28;20194;-54
2023/04/27 12:02:08;;;;;;;5.50;3.47;;;;;;;;;;5057803;28;20057;-59
2023/04/27 12:04:35;;;;;;;5.60;3.50;;;;;;;;;;5056014;28;20079;-61
2023/04/27 12:07:03;;;;;;;4.88;3.60;;;;;;;;;;5054332;28;20110;-60
2023/04/27 12:09:29;;;;;;;8.48;4.68;;;;;;;;;;5050786;28;20052;-62
2023/04/27 12:11:55;;;;;;;5.88;3.63;;;;;;;;;;5059730;28;20633;-52
2023/04/27 12:14:23;;;;;;;5.68;3.97;;;;;;;;;;5058167;28;20598;-60
2023/04/27 12:16:50;;;;;;;5.70;3.95;;;;;;;;;;5057691;28;20078;-60
2023/04/27 12:19:17;;;;;;;8.20;4.47;;;;;;;;;;5054153;28;20065;-58
2023/04/27 12:21:44;;;;;;;7.88;3.80;;;;;;;;;;5049518;28;20058;-60
2023/04/27 12:24:10;;;;;;;6.00;3.85;;;;;;;;;;5058123;28;20111;-60
2023/04/27 12:26:38;;;;;;;7.88;3.67;;;;;;;;;;5051331;28;20057;-60
2023/04/27 12:29:05;;;;;;;4.82;3.30;;;;;;;;;;5052113;28;20120;-60
2023/04/27 12:31:31;;;;;;;6.53;4.65;;;;;;;;;;5052029;28;20076;-58
2023/04/27 12:33:58;;;;;;;6.78;4.47;;;;;;;;;;5050492;28;20049;-60
2023/04/27 12:36:26;;;;;;;7.80;4.32;;;;;;;;;;5061233;28;20136;-60
2023/04/27 12:38:56;;;;;;;6.00;4.25;;;;;;;;;;5063014;28;20057;-58
2023/04/27 12:41:23;;;;;;;5.63;3.90;;;;;;;;;;5061621;28;20115;-59
2023/04/27 12:43:50;;;;;;;6.22;4.30;;;;;;;;;;5071744;28;21893;-61
2023/04/27 12:46:19;;;;;;;7.55;4.00;;;;;;;;;;5063923;28;20567;-60
2023/04/27 12:48:47;;;;;;;4.35;3.65;;;;;;;;;;5062800;28;20052;-60
2023/04/27 12:51:14;;;;;;;8.15;4.32;;;;;;;;;;5062857;28;20048;-51
2023/04/27 12:53:40;;;;;;;4.63;3.75;;;;;;;;;;5076651;28;20049;-51
2023/04/27 12:56:07;;;;;;;5.30;3.40;;;;;;;;;;5068079;28;20519;-48
2023/04/27 12:58:33;;;;;;;9.50;6.82;;;;;;;;;;5060975;28;20089;-62
2023/04/27 13:00:59;;;;;;;9.52;4.40;;;;;;;;;;5058308;28;20080;-62
2023/04/27 13:03:26;;;;;;;7.97;4.10;;;;;;;;;;5078639;28;20053;-62
2023/04/27 13:05:55;;;;;;;8.38;4.95;;;;;;;;;;5063534;28;20578;-62
2023/04/27 13:08:21;;;;;;;4.57;4.13;;;;;;;;;;5062831;28;20049;-61
2023/04/27 13:10:48;;;;;;;8.23;5.00;;;;;;;;;;5062193;28;20574;-62
2023/04/27 13:13:14;;;;;;;4.25;3.67;;;;;;;;;;5060946;28;20087;-62
2023/04/27 13:15:40;;;;;;;9.13;6.07;;;;;;;;;;5060275;28;20515;-62
2023/04/27 13:18:07;;;;;;;6.75;4.35;;;;;;;;;;5061916;28;20083;-62
2023/04/27 13:20:33;;;;;;;5.60;4.22;;;;;;;;;;5062264;28;20084;-62
2023/04/27 13:23:00;;;;;;;9.50;4.28;;;;;;;;;;5060119;28;20064;-60
2023/04/27 13:25:26;;;;;;;6.75;4.32;;;;;;;;;;5058384;28;20058;-62
2023/04/27 13:27:53;;;;;;;6.20;4.72;;;;;;;;;;5059926;28;20063;-61
2023/04/27 13:30:19;;;;;;;4.43;4.03;;;;;;;;;;5059287;28;20056;-61
2023/04/27 13:32:46;;;;;;;6.97;4.15;;;;;;;;;;5061785;28;20134;-61
2023/04/27 13:35:13;;;;;;;6.82;3.97;;;;;;;;;;5057736;28;20059;-60
2023/04/27 13:37:41;;;;;;;7.22;4.10;;;;;;;;;;5052824;28;20076;-60
2023/04/27 13:40:09;;;;;;;5.78;3.60;;;;;;;;;;5063404;28;20053;-61
2023/04/27 13:42:36;;;;;;;7.90;4.30;;;;;;;;;;5065647;28;20136;-61
2023/04/27 13:45:03;;;;;;;8.43;3.83;;;;;;;;;;5065527;28;20144;-61
2023/04/27 13:47:36;;;;;;;5.03;3.67;;;;;;;;;;5065729;28;20106;-60
2023/04/27 13:50:04;;;;;;;6.82;4.00;;;;;;;;;;5065150;28;20053;-61
2023/04/27 13:52:30;;;;;;;5.20;3.38;;;;;;;;;;5062617;28;20136;-61
2023/04/27 13:54:56;;;;;;;3.75;3.25;;;;;;;;;;5062962;28;20053;-61
2023/04/27 13:57:23;;;;;;;6.03;3.40;;;;;;;;;;5060517;28;20408;-60
2023/04/27 13:59:50;;;;;;;6.85;3.65;;;;;;;;;;5059544;28;20148;-60
2023/04/27 14:02:16;;;;;;;6.40;2.90;;;;;;;;;;5069426;28;20060;-60
2023/04/27 14:04:43;;;;;;;3.80;2.83;;;;;;;;;;5073768;28;20503;-60
2023/04/27 14:07:09;;;;;;;5.00;3.05;;;;;;;;;;5066014;28;20143;-60
2023/04/27 14:09:36;;;;;;;7.63;3.25;;;;;;;;;;5060379;28;20162;-60
2023/04/27 14:12:02;;;;;;;5.60;3.20;;;;;;;;;;5061640;28;20057;-61
2023/04/27 14:14:29;;;;;;;7.18;3.92;;;;;;;;;;5062295;28;20053;-59
2023/04/27 14:16:56;;;;;;;4.22;3.10;;;;;;;;;;5060723;28;20047;-60
2023/04/27 14:19:23;;;;;;;7.63;3.28;;;;;;;;;;5057108;28;20169;-61
2023/04/27 14:21:52;;;;;;;3.90;2.80;;;;;;;;;;5069797;28;20499;-60
2023/04/27 14:24:18;;;;;;;4.72;3.22;;;;;;;;;;5057416;28;20581;-60
2023/04/27 14:26:46;;;;;;;3.72;2.85;;;;;;;;;;5062017;28;20057;-60
2023/04/27 14:29:12;;;;;;;5.85;3.38;;;;;;;;;;5061840;28;20144;-60
2023/04/27 14:31:40;;;;;;;3.45;3.08;;;;;;;;;;5061855;28;20496;-61
2023/04/27 14:34:06;;;;;;;7.03;2.80;;;;;;;;;;5068176;28;20052;-60
2023/04/27 14:36:33;;;;;;;3.47;2.78;;;;;;;;;;5069146;28;20334;-60
2023/04/27 14:39:00;;;;;;;3.72;2.97;;;;;;;;;;5061975;28;20057;-61